createdAt,value
2019-02-09T00:01:05.402Z,94659.68
2019-02-09T00:03:35.008Z,94654.72
2019-02-09T00:06:05.614Z,94652.30
2019-02-09T00:08:35.226Z,94652.17
2019-02-09T00:11:05.330Z,94655.61
2019-02-09T00:13:34.850Z,94647.03
2019-02-09T00:16:05.275Z,94652.14
2019-02-09T00:18:34.911Z,94644.73
2019-02-09T00:21:04.872Z,94641.16
2019-02-09T00:23:34.550Z,94646.45
2019-02-09T00:26:04.187Z,94632.98
2019-02-09T00:28:34.083Z,94636.03
2019-02-09T00:31:03.723Z,94632.40
2019-02-09T00:33:33.351Z,94627.02
2019-02-09T00:36:02.864Z,94618.11
2019-02-09T00:38:32.436Z,94626.06
2019-02-09T00:41:02.054Z,94617.02
2019-02-09T00:43:31.554Z,94614.89
2019-02-09T00:46:01.071Z,94618.09
2019-02-09T00:48:30.650Z,94618.00
2019-02-09T00:51:00.191Z,94614.56
2019-02-09T00:53:29.790Z,94611.27
2019-02-09T00:55:59.352Z,94609.53
2019-02-09T00:58:28.967Z,94609.97
2019-02-09T01:00:59.192Z,94611.18
2019-02-09T01:03:28.697Z,94605.47
2019-02-09T01:05:58.314Z,94607.78
2019-02-09T01:08:29.098Z,94605.70
2019-02-09T01:10:58.659Z,94612.13
2019-02-09T01:13:28.163Z,94614.77
2019-02-09T01:15:57.780Z,94612.41
2019-02-09T01:18:27.519Z,94616.20
2019-02-09T01:20:57.058Z,94623.89
2019-02-09T01:23:26.573Z,94621.13
2019-02-09T01:25:56.139Z,94615.77
2019-02-09T01:28:25.711Z,94616.28
2019-02-09T01:30:55.285Z,94618.44
2019-02-09T01:33:24.832Z,94616.35
2019-02-09T01:35:54.359Z,94621.91
2019-02-09T01:38:23.878Z,94620.03
2019-02-09T01:40:53.458Z,94625.72
2019-02-09T01:43:22.965Z,94615.69
2019-02-09T01:45:52.527Z,94621.75
2019-02-09T01:48:22.130Z,94621.07
2019-02-09T01:50:51.692Z,94635.77
2019-02-09T01:53:21.301Z,94618.75
2019-02-09T01:55:50.837Z,94642.37
2019-02-09T01:58:20.440Z,94617.44
2019-02-09T02:00:50.005Z,94643.70
2019-02-09T02:03:19.714Z,94618.64
2019-02-09T02:05:49.481Z,94627.68
2019-02-09T02:08:20.646Z,94625.20
2019-02-09T02:10:50.469Z,94619.50
2019-02-09T02:13:19.985Z,94619.92
2019-02-09T02:15:49.528Z,94621.28
2019-02-09T02:18:19.055Z,94609.63
2019-02-09T02:20:48.624Z,94605.23
2019-02-09T02:23:19.363Z,94617.70
2019-02-09T02:25:48.944Z,94616.28
2019-02-09T02:28:18.445Z,94613.72
2019-02-09T02:30:48.140Z,94611.00
2019-02-09T02:33:17.653Z,94613.37
2019-02-09T02:35:47.246Z,94610.30
2019-02-09T02:38:16.783Z,94615.77
2019-02-09T02:40:46.292Z,94614.34
2019-02-09T02:43:15.898Z,94614.19
2019-02-09T02:45:45.437Z,94615.84
2019-02-09T02:48:14.954Z,94620.52
2019-02-09T02:50:44.549Z,94622.69
2019-02-09T02:53:14.077Z,94625.45
2019-02-09T02:55:43.698Z,94632.23
2019-02-09T02:58:13.219Z,94631.05
2019-02-09T03:00:42.800Z,94627.90
2019-02-09T03:03:12.364Z,94627.59
2019-02-09T03:05:41.941Z,94623.17
2019-02-09T03:08:11.485Z,94601.80
2019-02-09T03:10:41.020Z,94597.28
2019-02-09T03:13:10.571Z,94598.65
2019-02-09T03:15:40.111Z,94609.38
2019-02-09T03:18:09.724Z,94605.57
2019-02-09T03:20:39.238Z,94601.92
2019-02-09T03:23:08.778Z,94596.25
2019-02-09T03:25:38.300Z,94607.22
2019-02-09T03:28:08.060Z,94601.80
2019-02-09T03:30:47.454Z,94610.20
2019-02-09T03:33:09.027Z,94611.41
2019-02-09T03:35:38.693Z,94602.80
2019-02-09T03:38:08.350Z,94596.53
2019-02-09T03:40:37.857Z,94614.48
2019-02-09T03:43:07.470Z,94607.13
2019-02-09T03:45:37.152Z,94596.64
2019-02-09T03:48:07.019Z,94592.39
2019-02-09T03:50:37.206Z,94607.63
2019-02-09T03:53:06.728Z,94605.84
2019-02-09T03:55:36.272Z,94586.89
2019-02-09T03:58:06.658Z,94595.42
2019-02-09T04:00:37.805Z,94593.45
2019-02-09T04:03:07.586Z,94590.41
2019-02-09T04:05:37.203Z,94583.39
2019-02-09T04:08:06.810Z,94593.12
2019-02-09T04:10:36.328Z,94595.38
2019-02-09T04:13:05.926Z,94582.84
2019-02-09T04:15:35.693Z,94583.76
2019-02-09T04:18:05.348Z,94579.32
2019-02-09T04:20:34.907Z,94571.14
2019-02-09T04:23:04.558Z,94581.05
2019-02-09T04:25:34.037Z,94571.45
2019-02-09T04:28:03.568Z,94565.49
2019-02-09T04:30:34.851Z,94553.89
2019-02-09T04:33:04.523Z,94569.75
2019-02-09T04:35:34.034Z,94578.52
2019-02-09T04:38:03.672Z,94554.07
2019-02-09T04:40:34.130Z,94545.18
2019-02-09T04:43:03.767Z,94524.59
2019-02-09T04:45:33.871Z,94521.38
2019-02-09T04:48:03.396Z,94513.31
2019-02-09T04:50:32.992Z,94508.97
2019-02-09T04:53:02.512Z,94498.47
2019-02-09T04:55:32.092Z,94493.45
2019-02-09T04:58:02.194Z,94482.30
2019-02-09T05:00:34.934Z,94497.58
2019-02-09T05:03:05.265Z,94491.00
2019-02-09T05:05:35.000Z,94483.05
2019-02-09T05:08:04.615Z,94484.47
2019-02-09T05:10:34.123Z,94466.09
2019-02-09T05:13:03.696Z,94467.19
2019-02-09T05:15:33.320Z,94460.69
2019-02-09T05:18:02.865Z,94466.80
2019-02-09T05:20:32.362Z,94473.36
2019-02-09T05:23:01.889Z,94480.97
2019-02-09T05:25:31.524Z,94494.00
2019-02-09T05:28:01.045Z,94488.52
2019-02-09T05:30:31.039Z,94488.80
2019-02-09T05:33:01.124Z,94508.30
2019-02-09T05:35:30.769Z,94513.91
2019-02-09T05:38:00.287Z,94504.00
2019-02-09T05:40:29.911Z,94533.14
2019-02-09T05:42:59.501Z,94525.66
2019-02-09T05:45:30.949Z,94542.05
2019-02-09T05:48:01.775Z,94531.02
2019-02-09T05:50:31.333Z,94575.91
2019-02-09T05:53:01.750Z,94589.91
2019-02-09T05:55:31.282Z,94569.63
2019-02-09T05:58:00.819Z,94584.81
2019-02-09T06:00:39.806Z,94583.07
2019-02-09T06:03:09.338Z,94584.98
2019-02-09T06:05:38.938Z,94588.12
2019-02-09T06:08:08.512Z,94585.70
2019-02-09T06:10:38.073Z,94599.95
2019-02-09T06:13:07.658Z,94618.75
2019-02-09T06:15:37.376Z,94618.73
2019-02-09T06:18:26.293Z,94642.87
2019-02-09T06:21:15.182Z,94644.41
2019-02-09T06:23:44.718Z,94645.78
2019-02-09T06:26:14.225Z,94648.13
2019-02-09T06:28:43.751Z,94655.80
2019-02-09T06:31:13.552Z,94660.94
2019-02-09T06:33:43.071Z,94674.28
2019-02-09T06:36:12.570Z,94674.96
2019-02-09T06:38:42.086Z,94673.91
2019-02-09T06:41:11.603Z,94674.51
2019-02-09T06:43:42.260Z,94686.28
2019-02-09T06:46:11.863Z,94696.27
2019-02-09T06:48:41.373Z,94698.55
2019-02-09T06:51:10.903Z,94704.86
2019-02-09T06:53:40.536Z,94711.16
2019-02-09T06:56:10.650Z,94722.67
2019-02-09T06:58:40.189Z,94731.52
2019-02-09T07:01:09.719Z,94731.46
2019-02-09T07:03:39.283Z,94741.86
2019-02-09T07:06:08.781Z,94736.47
2019-02-09T07:08:39.074Z,94732.98
2019-02-09T07:11:08.738Z,94733.59
2019-02-09T07:13:38.270Z,94754.00
2019-02-09T07:16:07.770Z,94752.50
2019-02-09T07:18:37.302Z,94766.83
2019-02-09T07:21:08.864Z,94793.91
2019-02-09T07:23:38.387Z,94806.09
2019-02-09T07:26:08.041Z,94784.79
2019-02-09T07:28:37.534Z,94772.50
2019-02-09T07:31:07.033Z,94781.73
2019-02-09T07:33:36.539Z,94772.63
2019-02-09T07:36:06.282Z,94767.54
2019-02-09T07:38:35.790Z,94758.80
2019-02-09T07:41:05.445Z,94763.28
2019-02-09T07:43:34.961Z,94771.69
2019-02-09T07:46:04.934Z,94761.05
2019-02-09T07:48:34.440Z,94766.13
2019-02-09T07:51:04.062Z,94769.09
2019-02-09T07:53:52.911Z,94785.58
2019-02-09T07:56:23.516Z,94803.30
2019-02-09T07:58:53.030Z,94798.62
2019-02-09T08:01:22.664Z,94793.94
2019-02-09T08:03:52.202Z,94804.84
2019-02-09T08:06:21.801Z,94791.27
2019-02-09T08:08:51.708Z,94813.05
2019-02-09T08:11:21.229Z,94795.89
2019-02-09T08:13:50.742Z,94800.10
2019-02-09T08:16:20.342Z,94800.23
2019-02-09T08:18:49.870Z,94803.95
2019-02-09T08:21:19.957Z,94798.39
2019-02-09T08:23:49.505Z,94800.99
2019-02-09T08:26:19.117Z,94801.17
2019-02-09T08:28:48.702Z,94800.99
2019-02-09T08:31:18.208Z,94758.11
2019-02-09T08:33:48.518Z,94800.33
2019-02-09T08:36:18.066Z,94806.71
2019-02-09T08:38:47.549Z,94801.59
2019-02-09T08:41:17.117Z,94818.06
2019-02-09T08:43:46.645Z,94811.53
2019-02-09T08:46:16.843Z,94815.52
2019-02-09T08:48:46.388Z,94809.80
2019-02-09T08:51:35.242Z,94818.92
2019-02-09T08:54:04.813Z,94702.88
2019-02-09T08:56:53.660Z,94826.14
2019-02-09T08:59:23.150Z,94809.14
2019-02-09T09:01:52.761Z,94812.97
2019-02-09T09:04:41.688Z,94809.46
2019-02-09T09:07:11.213Z,94815.77
2019-02-09T09:09:40.742Z,94808.55
2019-02-09T09:12:10.958Z,94804.31
2019-02-09T09:14:40.429Z,94800.48
2019-02-09T09:17:10.054Z,94792.92
2019-02-09T09:19:39.592Z,94798.61
2019-02-09T09:22:09.111Z,94794.87
2019-02-09T09:24:38.648Z,94806.71
2019-02-09T09:27:08.241Z,94800.84
2019-02-09T09:29:37.829Z,94814.48
2019-02-09T09:32:08.709Z,94815.84
2019-02-09T09:34:38.254Z,94821.45
2019-02-09T09:37:27.157Z,94822.34
2019-02-09T09:39:56.687Z,94828.91
2019-02-09T09:42:58.206Z,94829.26
2019-02-09T09:45:34.579Z,94820.16
2019-02-09T09:48:05.305Z,94831.48
2019-02-09T09:50:35.014Z,94825.36
2019-02-09T09:53:05.034Z,94829.56
2019-02-09T09:55:35.122Z,94828.07
2019-02-09T09:58:05.278Z,94825.59
2019-02-09T10:00:34.959Z,94835.42
2019-02-09T10:03:04.831Z,94834.10
2019-02-09T10:05:34.382Z,94829.21
2019-02-09T10:08:04.630Z,94837.15
2019-02-09T10:10:34.225Z,94827.64
2019-02-09T10:13:03.913Z,94824.17
2019-02-09T10:15:33.504Z,94819.13
2019-02-09T10:18:02.986Z,94815.63
2019-02-09T10:20:32.621Z,94811.14
2019-02-09T10:23:02.191Z,94805.48
2019-02-09T10:25:31.777Z,94812.30
2019-02-09T10:28:01.468Z,94815.83
2019-02-09T10:30:35.650Z,94819.69
2019-02-09T10:33:05.256Z,94822.33
2019-02-09T10:35:34.831Z,94822.48
2019-02-09T10:38:04.404Z,94820.99
2019-02-09T10:40:38.575Z,94822.14
2019-02-09T10:43:09.893Z,94818.23
2019-02-09T10:45:39.568Z,94827.61
2019-02-09T10:48:09.459Z,94836.52
2019-02-09T10:50:47.494Z,94840.44
2019-02-09T10:53:17.017Z,94832.59
2019-02-09T10:55:46.812Z,94822.80
2019-02-09T10:58:16.399Z,94832.58
2019-02-09T11:00:56.703Z,94831.95
2019-02-09T11:03:26.257Z,94832.75
2019-02-09T11:05:55.869Z,94835.06
2019-02-09T11:08:25.518Z,94828.20
2019-02-09T11:10:55.122Z,94835.84
2019-02-09T11:13:25.759Z,94836.28
2019-02-09T11:15:55.282Z,94835.80
2019-02-09T11:18:24.809Z,94842.02
2019-02-09T11:20:54.329Z,94835.18
2019-02-09T11:23:23.905Z,94835.54
2019-02-09T11:25:53.985Z,94829.45
2019-02-09T11:28:23.559Z,94842.05
2019-02-09T11:30:53.143Z,94835.53
2019-02-09T11:33:22.816Z,94842.34
2019-02-09T11:35:52.335Z,94838.30
2019-02-09T11:38:22.041Z,94846.59
2019-02-09T11:40:51.662Z,94852.64
2019-02-09T11:43:21.215Z,94852.98
2019-02-09T11:45:50.698Z,94856.97
2019-02-09T11:48:20.227Z,94843.55
2019-02-09T11:50:50.245Z,94846.33
2019-02-09T11:53:19.858Z,94847.09
2019-02-09T11:55:49.502Z,94839.69
2019-02-09T11:58:19.012Z,94839.07
2019-02-09T12:00:52.665Z,94832.13
2019-02-09T12:03:22.203Z,94837.67
2019-02-09T12:05:51.701Z,94843.94
2019-02-09T12:08:21.304Z,94829.92
2019-02-09T12:10:50.827Z,94844.73
2019-02-09T12:13:20.339Z,94845.27
2019-02-09T12:15:49.883Z,94850.94
2019-02-09T12:18:19.404Z,94860.35
2019-02-09T12:20:48.935Z,94852.19
2019-02-09T12:23:18.605Z,94859.70
2019-02-09T12:25:48.095Z,94858.19
2019-02-09T12:28:17.673Z,94859.86
2019-02-09T12:30:48.339Z,94855.64
2019-02-09T12:33:23.184Z,94845.30
2019-02-09T12:35:49.109Z,94855.42
2019-02-09T12:38:18.712Z,94853.83
2019-02-09T12:40:48.271Z,94850.11
2019-02-09T12:43:17.846Z,94850.41
2019-02-09T12:45:47.362Z,94851.43
2019-02-09T12:48:16.952Z,94848.33
2019-02-09T12:50:46.512Z,94856.91
2019-02-09T12:53:16.051Z,94839.28
2019-02-09T12:55:46.809Z,94842.86
2019-02-09T12:58:16.386Z,94843.78
2019-02-09T13:00:45.897Z,94845.66
2019-02-09T13:03:34.839Z,94836.06
2019-02-09T13:06:04.590Z,94847.98
2019-02-09T13:08:34.109Z,94857.28
2019-02-09T13:11:03.715Z,94853.85
2019-02-09T13:13:33.261Z,94856.27
2019-02-09T13:16:03.121Z,94853.75
2019-02-09T13:18:32.644Z,94867.81
2019-02-09T13:21:21.741Z,94869.43
2019-02-09T13:23:51.237Z,94856.31
2019-02-09T13:26:20.727Z,94853.22
2019-02-09T13:28:50.306Z,94854.97
2019-02-09T13:31:19.839Z,94859.80
2019-02-09T13:33:49.516Z,94845.20
2019-02-09T13:36:19.044Z,94849.02
2019-02-09T13:38:48.558Z,94848.58
2019-02-09T13:41:18.093Z,94851.09
2019-02-09T13:43:47.641Z,94858.10
2019-02-09T13:46:17.183Z,94855.66
2019-02-09T13:48:47.797Z,94854.19
2019-02-09T13:51:17.277Z,94848.77
2019-02-09T13:53:46.778Z,94841.76
2019-02-09T13:56:16.732Z,94861.88
2019-02-09T13:58:46.221Z,94845.98
2019-02-09T14:01:16.256Z,94855.16
2019-02-09T14:03:47.089Z,94859.03
2019-02-09T14:06:17.720Z,94852.23
2019-02-09T14:08:47.292Z,94842.59
2019-02-09T14:11:16.918Z,94852.68
2019-02-09T14:13:46.443Z,94859.04
2019-02-09T14:16:15.975Z,94856.31
2019-02-09T14:18:45.455Z,94855.15
2019-02-09T14:21:15.019Z,94848.00
2019-02-09T14:23:44.511Z,94845.45
2019-02-09T14:26:14.120Z,94843.41
2019-02-09T14:28:43.643Z,94846.91
2019-02-09T14:31:13.219Z,94851.72
2019-02-09T14:33:43.374Z,94854.28
2019-02-09T14:36:12.965Z,94861.34
2019-02-09T14:38:42.479Z,94854.17
2019-02-09T14:41:12.091Z,94861.64
2019-02-09T14:43:41.635Z,94863.33
2019-02-09T14:46:11.314Z,94859.25
2019-02-09T14:48:40.899Z,94852.23
2019-02-09T14:51:10.439Z,94837.77
2019-02-09T14:53:39.960Z,94832.84
2019-02-09T14:56:09.538Z,94835.72
2019-02-09T14:58:39.105Z,94832.42
2019-02-09T15:01:08.669Z,94833.77
2019-02-09T15:03:38.244Z,94841.08
2019-02-09T15:06:08.214Z,94830.80
2019-02-09T15:08:37.750Z,94833.09
2019-02-09T15:11:07.307Z,94835.84
2019-02-09T15:13:36.858Z,94850.88
2019-02-09T15:16:19.945Z,94846.13
2019-02-09T15:18:49.433Z,94844.30
2019-02-09T15:21:19.012Z,94834.82
2019-02-09T15:23:48.577Z,94833.52
2019-02-09T15:26:18.205Z,94833.53
2019-02-09T15:28:47.731Z,94837.43
2019-02-09T15:31:17.211Z,94825.34
2019-02-09T15:33:46.743Z,94833.98
2019-02-09T15:36:16.254Z,94830.68
2019-02-09T15:38:45.854Z,94830.34
2019-02-09T15:41:15.362Z,94842.53
2019-02-09T15:43:44.882Z,94849.34
2019-02-09T15:46:14.452Z,94852.95
2019-02-09T15:48:43.938Z,94855.53
2019-02-09T15:51:13.544Z,94852.16
2019-02-09T15:53:43.036Z,94852.50
2019-02-09T15:56:12.567Z,94846.88
2019-02-09T15:58:42.119Z,94857.50
2019-02-09T16:01:12.944Z,94855.71
2019-02-09T16:03:42.422Z,94856.58
2019-02-09T16:06:12.043Z,94860.97
2019-02-09T16:08:41.547Z,94866.32
2019-02-09T16:11:11.104Z,94868.05
2019-02-09T16:13:45.505Z,94866.73
2019-02-09T16:16:11.920Z,94860.97
2019-02-09T16:18:41.610Z,94869.86
2019-02-09T16:21:11.124Z,94868.15
2019-02-09T16:23:40.700Z,94857.88
2019-02-09T16:26:10.261Z,94876.73
2019-02-09T16:28:39.747Z,94873.23
2019-02-09T16:31:09.298Z,94870.07
2019-02-09T16:33:38.842Z,94875.42
2019-02-09T16:36:08.392Z,94886.42
2019-02-09T16:38:39.485Z,94888.86
2019-02-09T16:41:09.217Z,94889.30
2019-02-09T16:43:38.767Z,94889.71
2019-02-09T16:46:08.347Z,94886.69
2019-02-09T16:48:37.885Z,94887.24
2019-02-09T16:51:07.529Z,94894.52
2019-02-09T16:53:37.118Z,94891.86
2019-02-09T16:56:06.950Z,94884.42
2019-02-09T16:58:36.517Z,94890.33
2019-02-09T17:01:06.473Z,94885.80
2019-02-09T17:03:37.220Z,94891.25
2019-02-09T17:06:06.964Z,94882.94
2019-02-09T17:08:36.518Z,94885.55
2019-02-09T17:11:06.914Z,94883.73
2019-02-09T17:13:36.455Z,94884.91
2019-02-09T17:16:06.933Z,94886.25
2019-02-09T17:18:36.434Z,94879.30
2019-02-09T17:21:06.566Z,94881.16
2019-02-09T17:23:36.164Z,94884.95
2019-02-09T17:26:05.960Z,94887.14
2019-02-09T17:28:35.450Z,94896.11
2019-02-09T17:31:05.175Z,94898.05
2019-02-09T17:33:34.750Z,94900.20
2019-02-09T17:36:04.611Z,94901.37
2019-02-09T17:38:34.181Z,94905.05
2019-02-09T17:41:04.059Z,94900.61
2019-02-09T17:43:33.568Z,94910.13
2019-02-09T17:46:12.415Z,94897.82
2019-02-09T17:48:41.909Z,94908.48
2019-02-09T17:51:11.443Z,94909.89
2019-02-09T17:53:40.966Z,94913.64
2019-02-09T17:56:10.486Z,94914.94
2019-02-09T17:58:40.016Z,94908.56
2019-02-09T18:01:11.228Z,94919.06
2019-02-09T18:03:40.817Z,94911.86
2019-02-09T18:06:10.436Z,94908.11
2019-02-09T18:08:39.926Z,94914.81
2019-02-09T18:11:10.307Z,94913.50
2019-02-09T18:13:39.883Z,94921.27
2019-02-09T18:16:09.531Z,94918.08
2019-02-09T18:18:39.079Z,94918.20
2019-02-09T18:21:08.778Z,94925.25
2019-02-09T18:23:38.738Z,94916.82
2019-02-09T18:26:08.332Z,94928.21
2019-02-09T18:28:37.871Z,94930.80
2019-02-09T18:31:07.432Z,94942.59
2019-02-09T18:33:37.009Z,94933.61
2019-02-09T18:36:07.711Z,94933.88
2019-02-09T18:38:37.266Z,94938.56
2019-02-09T18:41:06.961Z,94935.19
2019-02-09T18:43:36.609Z,94939.23
2019-02-09T18:46:06.371Z,94938.64
2019-02-09T18:48:36.231Z,94934.38
2019-02-09T18:51:06.107Z,94936.09
2019-02-09T18:53:35.636Z,94929.99
2019-02-09T18:56:05.377Z,94923.89
2019-02-09T18:58:34.920Z,94934.42
2019-02-09T19:01:05.158Z,94932.83
2019-02-09T19:03:34.723Z,94928.67
2019-02-09T19:06:04.372Z,94923.45
2019-02-09T19:08:33.943Z,94920.56
2019-02-09T19:11:03.485Z,94922.33
2019-02-09T19:13:33.052Z,94920.28
2019-02-09T19:16:02.644Z,94926.77
2019-02-09T19:18:32.130Z,94923.36
2019-02-09T19:21:01.846Z,94924.41
2019-02-09T19:23:31.607Z,94919.56
2019-02-09T19:26:01.126Z,94923.16
2019-02-09T19:28:30.866Z,94919.96
2019-02-09T19:31:00.467Z,94913.16
2019-02-09T19:33:30.090Z,94911.08
2019-02-09T19:35:59.638Z,94909.83
2019-02-09T19:38:29.251Z,94912.73
2019-02-09T19:40:58.811Z,94910.86
2019-02-09T19:43:28.675Z,94911.62
2019-02-09T19:45:58.483Z,94904.75
2019-02-09T19:48:28.060Z,94909.30
2019-02-09T19:50:57.547Z,94907.73
2019-02-09T19:53:27.111Z,94909.77
2019-02-09T19:55:56.627Z,94905.31
2019-02-09T19:58:26.125Z,94903.06
2019-02-09T20:00:55.672Z,94907.22
2019-02-09T20:03:25.204Z,94906.91
2019-02-09T20:05:54.721Z,94903.81
2019-02-09T20:08:24.369Z,94903.02
2019-02-09T20:10:54.038Z,94902.86
2019-02-09T20:13:23.687Z,94898.75
2019-02-09T20:15:53.214Z,94892.08
2019-02-09T20:18:22.716Z,94893.25
2019-02-09T20:20:52.279Z,94891.97
2019-02-09T20:23:21.936Z,94888.87
2019-02-09T20:25:51.482Z,94878.51
2019-02-09T20:28:21.333Z,94882.30
2019-02-09T20:30:52.087Z,94876.38
2019-02-09T20:33:22.046Z,94868.45
2019-02-09T20:35:51.571Z,94877.22
2019-02-09T20:38:21.189Z,94873.05
2019-02-09T20:40:55.828Z,94866.14
2019-02-09T20:43:25.328Z,94862.36
2019-02-09T20:45:54.844Z,94862.61
2019-02-09T20:48:24.406Z,94864.96
2019-02-09T20:53:30.065Z,94873.34
2019-02-09T20:56:12.195Z,94872.86
2019-02-09T20:58:54.614Z,94878.16
2019-02-09T21:01:43.480Z,94879.30
2019-02-09T21:04:32.488Z,94877.55
2019-02-09T21:07:02.068Z,94889.61
